createdAt,value
2018-12-24T00:01:46.555Z,174.27
2018-12-24T00:04:17.144Z,244.17
2018-12-24T00:06:47.842Z,224.73
2018-12-24T00:09:18.625Z,125.43
2018-12-24T00:11:49.347Z,190.40
2018-12-24T00:14:20.166Z,293.20
2018-12-24T00:16:50.862Z,282.00
2018-12-24T00:19:21.561Z,209.90
2018-12-24T00:21:52.227Z,205.30
2018-12-24T00:24:23.115Z,177.27
2018-12-24T00:26:53.834Z,253.80
2018-12-24T00:29:24.506Z,247.00
2018-12-24T00:31:55.138Z,312.77
2018-12-24T00:34:25.857Z,144.17
2018-12-24T00:36:56.519Z,253.73
2018-12-24T00:39:27.513Z,256.07
2018-12-24T00:41:58.253Z,225.43
2018-12-24T00:44:28.934Z,365.83
2018-12-24T00:46:59.530Z,291.97
2018-12-24T00:49:30.242Z,338.90
2018-12-24T00:52:00.912Z,222.73
2018-12-24T00:54:31.565Z,203.80
2018-12-24T00:57:02.135Z,264.40
2018-12-24T00:59:32.970Z,273.77
2018-12-24T01:02:03.646Z,297.17
2018-12-24T01:04:34.358Z,180.37
2018-12-24T01:07:05.094Z,268.37
2018-12-24T01:09:35.698Z,298.43
2018-12-24T01:12:06.329Z,311.37
2018-12-24T01:14:37.054Z,179.50
2018-12-24T01:17:07.898Z,301.43
2018-12-24T01:19:38.633Z,190.10
2018-12-24T01:22:09.310Z,380.07
2018-12-24T01:24:39.980Z,318.07
2018-12-24T01:27:10.522Z,252.00
2018-12-24T01:29:41.359Z,208.57
2018-12-24T01:32:12.053Z,251.57
2018-12-24T01:34:42.734Z,314.27
2018-12-24T01:37:13.398Z,250.67
2018-12-24T01:39:44.041Z,260.70
2018-12-24T01:42:14.836Z,199.13
2018-12-24T01:44:45.509Z,105.30
2018-12-24T01:47:16.286Z,109.20
2018-12-24T01:49:47.036Z,95.13
2018-12-24T01:52:17.681Z,118.10
2018-12-24T01:54:48.348Z,90.60
2018-12-24T01:57:19.027Z,148.53
2018-12-24T01:59:49.693Z,121.37
2018-12-24T02:02:20.305Z,156.57
2018-12-24T02:04:51.009Z,147.17
2018-12-24T02:07:21.709Z,118.47
2018-12-24T02:09:52.271Z,107.87
2018-12-24T02:12:23.019Z,139.40
2018-12-24T02:14:53.726Z,117.77
2018-12-24T02:17:24.576Z,108.17
2018-12-24T02:19:55.373Z,134.50
2018-12-24T02:22:26.040Z,122.00
2018-12-24T02:24:56.568Z,201.60
2018-12-24T02:27:27.300Z,207.90
2018-12-24T02:29:57.982Z,207.00
2018-12-24T02:32:28.769Z,224.23
2018-12-24T02:34:59.520Z,189.73
2018-12-24T02:37:30.194Z,197.37
2018-12-24T02:40:01.405Z,218.03
2018-12-24T02:42:32.112Z,187.63
2018-12-24T02:45:02.949Z,188.13
2018-12-24T02:47:33.642Z,137.90
2018-12-24T02:50:04.366Z,267.30
2018-12-24T02:52:35.001Z,274.20
2018-12-24T02:55:05.673Z,312.87
2018-12-24T02:57:36.411Z,214.40
2018-12-24T03:00:53.641Z,229.00
2018-12-24T03:03:23.852Z,179.40
2018-12-24T03:05:54.154Z,189.73
2018-12-24T03:08:24.122Z,248.97
2018-12-24T03:10:54.097Z,227.93
2018-12-24T03:13:24.382Z,319.03
2018-12-24T03:15:54.319Z,285.30
2018-12-24T03:18:24.588Z,224.47
2018-12-24T03:20:54.527Z,331.87
2018-12-24T03:23:24.441Z,368.67
2018-12-24T03:25:54.719Z,358.97
2018-12-24T03:28:24.664Z,305.57
2018-12-24T03:30:55.454Z,335.07
2018-12-24T03:33:25.719Z,285.87
2018-12-24T03:35:55.982Z,292.53
2018-12-24T03:38:26.166Z,193.87
2018-12-24T03:40:56.438Z,266.90
2018-12-24T03:43:26.384Z,280.73
2018-12-24T03:45:56.818Z,310.10
2018-12-24T03:48:26.853Z,184.43
2018-12-24T03:50:57.094Z,251.07
2018-12-24T03:53:27.357Z,304.37
2018-12-24T03:55:57.662Z,240.80
2018-12-24T03:58:27.957Z,357.83
2018-12-24T04:00:58.020Z,242.47
2018-12-24T04:03:28.146Z,196.83
2018-12-24T04:05:58.257Z,237.80
2018-12-24T04:08:28.347Z,251.73
2018-12-24T04:10:58.598Z,208.27
2018-12-24T04:13:28.887Z,206.50
2018-12-24T04:15:59.245Z,192.70
2018-12-24T04:18:29.550Z,187.87
2018-12-24T04:20:59.688Z,163.03
2018-12-24T04:23:29.911Z,229.00
2018-12-24T04:26:00.201Z,243.47
2018-12-24T04:28:30.351Z,247.70
2018-12-24T04:31:00.475Z,202.30
2018-12-24T04:33:30.784Z,203.13
2018-12-24T04:36:01.062Z,246.37
2018-12-24T04:38:31.312Z,174.30
2018-12-24T04:41:01.571Z,195.50
2018-12-24T04:43:32.389Z,188.47
2018-12-24T04:46:02.903Z,238.40
2018-12-24T04:48:33.251Z,200.57
2018-12-24T04:51:03.257Z,238.07
2018-12-24T04:53:33.543Z,318.93
2018-12-24T04:56:03.812Z,240.23
2018-12-24T04:58:33.734Z,305.87
2018-12-24T05:01:04.124Z,293.47
2018-12-24T05:03:34.574Z,241.87
2018-12-24T05:06:04.821Z,313.30
2018-12-24T05:08:34.933Z,265.23
2018-12-24T05:11:05.254Z,235.13
2018-12-24T05:13:40.891Z,281.77
2018-12-24T05:16:08.298Z,323.33
2018-12-24T05:18:40.647Z,316.33
2018-12-24T05:21:12.762Z,277.77
2018-12-24T05:23:47.046Z,267.23
2018-12-24T05:26:17.216Z,255.63
2018-12-24T05:28:47.740Z,302.97
2018-12-24T05:31:17.865Z,287.93
2018-12-24T05:33:49.315Z,308.73
2018-12-24T05:36:20.475Z,244.53
2018-12-24T05:38:53.640Z,276.20
2018-12-24T05:41:23.926Z,288.60
2018-12-24T05:43:53.994Z,255.70
2018-12-24T05:46:23.970Z,237.97
2018-12-24T05:48:54.285Z,271.70
2018-12-24T05:51:24.624Z,335.50
2018-12-24T05:53:54.866Z,248.87
2018-12-24T05:56:25.168Z,322.53
2018-12-24T05:58:55.317Z,236.33
2018-12-24T06:01:25.436Z,261.57
2018-12-24T06:03:55.727Z,272.43
2018-12-24T06:06:25.937Z,227.97
2018-12-24T06:08:55.988Z,271.23
2018-12-24T06:11:26.113Z,261.70
2018-12-24T06:13:58.045Z,200.07
2018-12-24T06:16:27.890Z,194.63
2018-12-24T06:18:58.317Z,263.83
2018-12-24T06:21:28.439Z,256.93
2018-12-24T06:23:58.656Z,254.60
2018-12-24T06:26:28.585Z,159.50
2018-12-24T06:28:58.691Z,260.10
2018-12-24T06:31:29.005Z,198.77
2018-12-24T06:33:58.952Z,276.17
2018-12-24T06:36:28.944Z,276.03
2018-12-24T06:38:59.268Z,260.83
2018-12-24T06:41:29.560Z,278.23
2018-12-24T06:44:06.719Z,236.90
2018-12-24T06:46:31.770Z,242.20
2018-12-24T06:49:02.153Z,226.90
2018-12-24T06:51:32.321Z,231.10
2018-12-24T06:54:02.746Z,232.63
2018-12-24T06:56:33.021Z,193.60
2018-12-24T06:59:05.317Z,236.50
2018-12-24T07:01:35.191Z,307.60
2018-12-24T07:04:05.571Z,397.77
2018-12-24T07:06:35.852Z,285.20
2018-12-24T07:09:10.731Z,198.67
2018-12-24T07:11:41.001Z,264.70
2018-12-24T07:14:15.420Z,291.07
2018-12-24T07:16:43.254Z,324.60
2018-12-24T07:19:13.662Z,236.90
2018-12-24T07:21:43.909Z,290.40
2018-12-24T07:24:14.221Z,264.17
2018-12-24T07:26:44.506Z,367.67
2018-12-24T07:29:14.731Z,265.97
2018-12-24T07:31:44.975Z,297.30
2018-12-24T07:34:15.273Z,235.80
2018-12-24T07:36:45.494Z,312.73
2018-12-24T07:39:16.258Z,232.73
2018-12-24T07:41:46.638Z,183.90
2018-12-24T07:44:23.949Z,308.83
2018-12-24T07:46:48.753Z,226.43
2018-12-24T07:49:19.042Z,172.50
2018-12-24T07:51:49.280Z,273.47
2018-12-24T07:54:19.732Z,235.37
2018-12-24T07:56:50.083Z,244.47
2018-12-24T07:59:20.332Z,179.70
2018-12-24T08:01:50.625Z,186.17
2018-12-24T08:04:20.895Z,247.60
2018-12-24T08:06:51.060Z,173.50
2018-12-24T08:09:21.398Z,200.73
2018-12-24T08:11:51.654Z,255.97
2018-12-24T08:14:21.833Z,215.17
2018-12-24T08:16:52.033Z,163.43
2018-12-24T08:19:22.305Z,164.83
2018-12-24T08:21:52.577Z,196.17
2018-12-24T08:24:22.869Z,316.60
2018-12-24T08:26:53.762Z,208.07
2018-12-24T08:29:24.071Z,173.07
2018-12-24T08:31:54.405Z,295.00
2018-12-24T08:34:24.672Z,264.77
2018-12-24T08:36:54.750Z,234.23
2018-12-24T08:39:25.077Z,232.83
2018-12-24T08:41:55.327Z,295.50
2018-12-24T08:44:25.550Z,253.60
2018-12-24T08:46:55.800Z,219.10
2018-12-24T08:49:26.060Z,181.07
2018-12-24T08:51:56.324Z,178.43
2018-12-24T08:54:26.885Z,113.83
2018-12-24T08:56:57.140Z,133.47
2018-12-24T08:59:27.561Z,142.30
2018-12-24T09:01:58.162Z,190.67
2018-12-24T09:04:28.554Z,140.30
2018-12-24T09:06:58.861Z,141.30
2018-12-24T09:09:29.125Z,111.13
2018-12-24T09:11:59.411Z,177.27
2018-12-24T09:14:29.629Z,160.87
2018-12-24T09:16:59.922Z,160.10
2018-12-24T09:19:30.153Z,182.80
2018-12-24T09:22:00.364Z,217.67
2018-12-24T09:24:30.703Z,154.40
2018-12-24T09:27:00.960Z,137.37
2018-12-24T09:29:31.353Z,158.67
2018-12-24T09:32:01.635Z,201.97
2018-12-24T09:34:31.905Z,184.83
2018-12-24T09:37:02.155Z,111.23
2018-12-24T09:39:32.441Z,118.17
2018-12-24T09:42:02.647Z,96.37
2018-12-24T09:44:32.884Z,103.97
2018-12-24T09:47:03.187Z,83.77
2018-12-24T09:49:33.414Z,92.20
2018-12-24T09:52:03.643Z,79.23
2018-12-24T09:54:33.958Z,74.30
2018-12-24T09:57:04.366Z,95.20
2018-12-24T09:59:34.608Z,85.07
2018-12-24T10:02:05.064Z,72.90
2018-12-24T10:04:47.177Z,119.47
2018-12-24T10:07:45.900Z,81.80
2018-12-24T10:10:18.683Z,82.93
2018-12-24T10:12:48.928Z,69.47
2018-12-24T10:15:19.264Z,71.73
2018-12-24T10:17:49.500Z,70.73
2018-12-24T10:20:19.758Z,65.00
2018-12-24T10:22:50.098Z,52.77
2018-12-24T10:25:20.562Z,71.47
2018-12-24T10:27:50.709Z,51.63
2018-12-24T10:30:21.278Z,54.07
2018-12-24T10:32:51.470Z,42.17
2018-12-24T10:35:21.727Z,52.33
2018-12-24T10:37:51.961Z,46.03
2018-12-24T10:40:22.328Z,44.50
2018-12-24T10:42:52.408Z,40.80
2018-12-24T10:45:22.736Z,43.23
2018-12-24T10:47:52.978Z,40.43
2018-12-24T10:50:23.169Z,37.57
2018-12-24T10:52:54.285Z,38.80
2018-12-24T10:55:24.557Z,31.63
2018-12-24T10:57:54.754Z,31.80
2018-12-24T11:00:25.019Z,27.80
2018-12-24T11:02:55.620Z,27.37
2018-12-24T11:05:25.962Z,26.03
2018-12-24T11:07:56.216Z,26.50
2018-12-24T11:10:27.026Z,27.10
2018-12-24T11:12:57.189Z,27.03
2018-12-24T11:15:27.497Z,27.30
2018-12-24T11:17:57.794Z,30.67
2018-12-24T11:20:28.016Z,29.43
2018-12-24T11:22:58.241Z,31.80
2018-12-24T11:25:28.422Z,32.97
2018-12-24T11:27:58.667Z,33.77
2018-12-24T11:30:29.040Z,35.10
2018-12-24T11:32:59.297Z,35.37
2018-12-24T11:35:29.741Z,31.57
2018-12-24T11:38:00.016Z,35.77
2018-12-24T11:40:30.301Z,34.47
2018-12-24T11:43:00.481Z,31.50
2018-12-24T11:45:33.888Z,36.43
2018-12-24T11:48:02.837Z,34.47
2018-12-24T11:50:32.925Z,31.20
2018-12-24T11:53:03.148Z,33.53
2018-12-24T11:55:33.330Z,33.47
2018-12-24T11:58:03.584Z,32.07
2018-12-24T12:00:33.944Z,31.60
2018-12-24T12:03:04.390Z,32.03
2018-12-24T12:05:35.126Z,33.37
2018-12-24T12:08:05.412Z,32.57
2018-12-24T12:10:35.702Z,31.07
2018-12-24T12:13:05.924Z,32.97
2018-12-24T12:15:42.593Z,31.27
2018-12-24T12:18:08.121Z,29.43
2018-12-24T12:20:38.326Z,31.77
2018-12-24T12:23:08.708Z,28.90
2018-12-24T12:25:39.024Z,31.37
2018-12-24T12:28:09.449Z,30.10
2018-12-24T12:30:39.758Z,28.87
2018-12-24T12:33:10.054Z,28.27
2018-12-24T12:35:40.289Z,30.53
2018-12-24T12:38:10.743Z,24.47
2018-12-24T12:40:41.172Z,29.47
2018-12-24T12:43:11.421Z,31.83
2018-12-24T12:45:41.802Z,32.87
2018-12-24T12:48:12.413Z,33.03
2018-12-24T12:50:42.940Z,31.93
2018-12-24T12:53:13.407Z,48.37
2018-12-24T12:55:44.001Z,33.73
2018-12-24T12:58:14.206Z,32.80
2018-12-24T13:00:44.438Z,32.97
2018-12-24T13:03:14.618Z,31.20
2018-12-24T13:05:45.093Z,29.80
2018-12-24T13:08:15.485Z,32.17
2018-12-24T13:10:45.727Z,36.77
2018-12-24T13:13:16.094Z,38.07
2018-12-24T13:15:46.399Z,41.50
2018-12-24T13:18:16.667Z,38.10
2018-12-24T13:20:47.032Z,44.70
2018-12-24T13:23:17.439Z,49.97
2018-12-24T13:25:47.757Z,46.03
2018-12-24T13:28:17.941Z,36.67
2018-12-24T13:30:48.274Z,33.00
2018-12-24T13:33:18.733Z,33.43
2018-12-24T13:35:48.934Z,32.63
2018-12-24T13:38:20.254Z,34.43
2018-12-24T13:40:50.675Z,29.43
2018-12-24T13:43:20.894Z,32.50
2018-12-24T13:45:51.256Z,31.70
2018-12-24T13:48:21.616Z,32.40
2018-12-24T13:50:51.918Z,30.17
2018-12-24T13:53:22.202Z,31.77
2018-12-24T13:55:52.625Z,32.00
2018-12-24T13:58:23.043Z,31.97
2018-12-24T14:00:53.400Z,28.40
2018-12-24T14:03:23.747Z,30.27
2018-12-24T14:05:54.229Z,34.13
2018-12-24T14:08:24.466Z,38.53
2018-12-24T14:10:54.696Z,31.70
2018-12-24T14:13:25.009Z,28.07
2018-12-24T14:15:55.410Z,92.60
2018-12-24T14:18:26.271Z,44.30
2018-12-24T14:20:56.556Z,30.80
2018-12-24T14:23:26.819Z,28.87
2018-12-24T14:25:57.022Z,31.63
2018-12-24T14:28:27.366Z,31.20
2018-12-24T14:31:05.645Z,30.67
2018-12-24T14:33:37.828Z,33.60
2018-12-24T14:36:09.656Z,32.70
2018-12-24T14:38:41.508Z,32.07
2018-12-24T14:41:13.027Z,35.63
2018-12-24T14:43:44.685Z,33.60
2018-12-24T14:46:14.914Z,34.63
2018-12-24T14:48:45.414Z,29.40
2018-12-24T14:51:15.662Z,33.80
2018-12-24T14:53:45.966Z,36.73
2018-12-24T14:56:16.229Z,34.33
2018-12-24T14:58:46.530Z,35.63
2018-12-24T15:01:16.869Z,36.13
2018-12-24T15:03:47.512Z,35.07
2018-12-24T15:06:17.876Z,38.40
2018-12-24T15:08:48.212Z,41.20
2018-12-24T15:11:18.530Z,41.97
2018-12-24T15:13:48.777Z,39.80
2018-12-24T15:16:18.994Z,41.53
2018-12-24T15:18:49.330Z,35.67
2018-12-24T15:21:19.560Z,34.93
2018-12-24T15:23:49.783Z,31.77
2018-12-24T15:26:20.122Z,32.80
2018-12-24T15:28:50.388Z,31.40
2018-12-24T15:31:20.531Z,32.80
2018-12-24T15:33:50.922Z,28.77
2018-12-24T15:36:21.154Z,29.23
2018-12-24T15:38:51.271Z,30.83
2018-12-24T15:41:21.627Z,32.07
2018-12-24T15:43:52.042Z,35.33
2018-12-24T15:46:22.313Z,39.17
2018-12-24T15:48:52.608Z,34.57
2018-12-24T15:51:22.769Z,34.50
2018-12-24T15:53:53.036Z,38.23
2018-12-24T15:56:23.432Z,41.73
2018-12-24T15:58:53.670Z,32.73
2018-12-24T16:01:23.936Z,34.43
2018-12-24T16:03:54.346Z,40.57
2018-12-24T16:06:24.689Z,35.53
2018-12-24T16:08:55.058Z,37.33
2018-12-24T16:11:25.379Z,38.50
2018-12-24T16:13:55.771Z,37.93
2018-12-24T16:16:26.061Z,31.73
2018-12-24T16:18:56.434Z,35.00
2018-12-24T16:21:26.676Z,38.23
2018-12-24T16:23:57.032Z,37.93
2018-12-24T16:26:31.629Z,32.77
2018-12-24T16:29:01.914Z,42.50
2018-12-24T16:31:32.171Z,36.03
2018-12-24T16:34:02.683Z,33.60
2018-12-24T16:36:33.111Z,34.63
2018-12-24T16:39:03.494Z,40.23
2018-12-24T16:41:33.877Z,36.00
2018-12-24T16:44:04.001Z,45.67
2018-12-24T16:46:34.270Z,45.57
2018-12-24T16:49:04.937Z,40.53
2018-12-24T16:51:35.195Z,41.43
2018-12-24T16:54:05.430Z,45.90
2018-12-24T16:56:35.980Z,40.17
2018-12-24T16:59:06.184Z,45.60
2018-12-24T17:01:36.496Z,42.60
2018-12-24T17:04:06.981Z,42.50
2018-12-24T17:06:37.383Z,89.47
2018-12-24T17:09:08.550Z,50.07
2018-12-24T17:11:39.175Z,57.73
2018-12-24T17:14:12.718Z,63.27
2018-12-24T17:16:43.167Z,78.93
2018-12-24T17:19:13.500Z,58.47
2018-12-24T17:21:43.884Z,61.73
2018-12-24T17:24:14.190Z,127.10
2018-12-24T17:26:44.389Z,92.97
2018-12-24T17:29:15.186Z,98.93
2018-12-24T17:31:47.338Z,69.23
2018-12-24T17:34:20.635Z,117.57
2018-12-24T17:36:51.190Z,205.43
2018-12-24T17:39:23.124Z,299.17
2018-12-24T17:41:53.478Z,137.80
2018-12-24T17:44:23.785Z,175.20
2018-12-24T17:46:54.042Z,194.10
2018-12-24T17:49:28.032Z,108.40
2018-12-24T17:51:58.310Z,89.50
2018-12-24T17:54:28.578Z,164.60
2018-12-24T17:56:58.884Z,84.00
2018-12-24T17:59:29.151Z,85.23
2018-12-24T18:01:59.494Z,105.30
2018-12-24T18:04:29.783Z,99.67
2018-12-24T18:07:00.026Z,98.50
2018-12-24T18:09:30.429Z,97.77
2018-12-24T18:12:00.764Z,86.37
2018-12-24T18:14:30.966Z,63.83
2018-12-24T18:17:01.209Z,273.93
2018-12-24T18:19:31.522Z,81.97
2018-12-24T18:22:01.878Z,88.47
2018-12-24T18:24:32.103Z,65.43
2018-12-24T18:27:06.672Z,125.00
2018-12-24T18:29:36.964Z,71.00
2018-12-24T18:32:07.237Z,107.07
2018-12-24T18:34:37.534Z,76.03
2018-12-24T18:37:07.793Z,90.03
2018-12-24T18:39:38.156Z,65.43
2018-12-24T18:42:08.416Z,97.47
2018-12-24T18:44:38.662Z,108.10
2018-12-24T18:47:08.905Z,78.33
2018-12-24T18:49:39.207Z,75.77
2018-12-24T18:52:09.434Z,80.63
2018-12-24T18:54:39.658Z,77.53
2018-12-24T18:57:09.953Z,73.00
2018-12-24T18:59:40.257Z,84.63
2018-12-24T19:02:10.640Z,92.07
2018-12-24T19:04:41.836Z,87.63
2018-12-24T19:07:12.128Z,73.00
2018-12-24T19:09:42.582Z,101.73
2018-12-24T19:12:14.750Z,100.60
2018-12-24T19:14:45.013Z,91.13
2018-12-24T19:17:15.305Z,102.43
2018-12-24T19:19:45.663Z,116.87
2018-12-24T19:22:16.110Z,142.53
2018-12-24T19:24:46.438Z,95.77
2018-12-24T19:27:16.840Z,145.73
2018-12-24T19:29:47.096Z,134.23
2018-12-24T19:32:17.413Z,100.87
2018-12-24T19:34:47.804Z,106.70
2018-12-24T19:37:18.031Z,106.30
2018-12-24T19:39:48.155Z,101.90
2018-12-24T19:42:18.492Z,118.10
2018-12-24T19:44:48.947Z,107.93
2018-12-24T19:47:19.450Z,108.57
2018-12-24T19:49:49.806Z,143.30
2018-12-24T19:52:20.241Z,145.27
2018-12-24T19:54:50.517Z,113.00
2018-12-24T19:57:20.796Z,85.47
2018-12-24T19:59:51.069Z,103.23
2018-12-24T20:02:21.273Z,152.33
2018-12-24T20:04:51.447Z,95.97
2018-12-24T20:07:21.735Z,83.73
2018-12-24T20:09:51.943Z,108.67
2018-12-24T20:12:22.339Z,90.00
2018-12-24T20:14:52.750Z,117.97
2018-12-24T20:17:23.030Z,90.00
2018-12-24T20:19:53.310Z,162.27
2018-12-24T20:22:23.513Z,94.30
2018-12-24T20:24:53.769Z,95.27
2018-12-24T20:27:24.050Z,106.83
2018-12-24T20:29:56.770Z,232.33
2018-12-24T20:32:27.476Z,91.90
2018-12-24T20:34:57.805Z,89.30
2018-12-24T20:37:28.209Z,77.43
2018-12-24T20:39:58.451Z,71.13
2018-12-24T20:42:28.857Z,102.60
2018-12-24T20:44:59.152Z,138.57
2018-12-24T20:47:29.331Z,91.30
2018-12-24T20:49:59.633Z,158.37
2018-12-24T20:52:29.913Z,82.53
2018-12-24T20:55:00.151Z,100.20
2018-12-24T20:57:30.592Z,73.60
2018-12-24T21:00:00.829Z,59.57
2018-12-24T21:02:31.137Z,58.83
2018-12-24T21:05:01.476Z,174.97
2018-12-24T21:07:31.713Z,261.70
2018-12-24T21:10:01.975Z,124.30
2018-12-24T21:12:32.230Z,79.77
2018-12-24T21:15:02.521Z,92.67
2018-12-24T21:17:32.923Z,91.73
2018-12-24T21:20:03.174Z,112.97
2018-12-24T21:22:33.456Z,67.97
2018-12-24T21:25:03.649Z,64.53
2018-12-24T21:27:33.994Z,52.13
2018-12-24T21:30:04.492Z,67.13
2018-12-24T21:32:34.645Z,87.27
2018-12-24T21:35:05.140Z,261.83
2018-12-24T21:37:35.433Z,70.37
2018-12-24T21:40:05.832Z,332.63
2018-12-24T21:42:38.285Z,77.70
2018-12-24T21:45:08.560Z,312.77
2018-12-24T21:47:38.745Z,65.77
2018-12-24T21:50:09.025Z,142.13
2018-12-24T21:52:39.325Z,185.37
2018-12-24T21:55:09.631Z,235.53
2018-12-24T21:57:40.630Z,71.30
2018-12-24T22:00:10.900Z,56.20
2018-12-24T22:02:41.094Z,46.70
2018-12-24T22:05:11.367Z,81.33
2018-12-24T22:07:41.663Z,49.73
2018-12-24T22:10:11.998Z,53.73
2018-12-24T22:12:42.380Z,45.03
2018-12-24T22:15:12.582Z,55.13
2018-12-24T22:17:43.009Z,62.67
2018-12-24T22:20:13.336Z,41.43
2018-12-24T22:22:44.042Z,42.57
2018-12-24T22:25:14.341Z,87.57
2018-12-24T22:27:44.800Z,68.27
2018-12-24T22:30:15.035Z,36.37
2018-12-24T22:32:45.258Z,36.57
2018-12-24T22:35:15.587Z,26.87
2018-12-24T22:37:45.992Z,133.97
2018-12-24T22:40:16.266Z,118.47
2018-12-24T22:42:46.552Z,62.80
2018-12-24T22:45:16.715Z,136.43
2018-12-24T22:47:47.081Z,54.00
2018-12-24T22:50:17.407Z,42.67
2018-12-24T22:52:47.682Z,55.97
2018-12-24T22:55:17.916Z,46.10
2018-12-24T22:57:48.157Z,45.43
2018-12-24T23:00:32.318Z,39.57
2018-12-24T23:03:02.627Z,38.47
2018-12-24T23:05:32.923Z,64.97
2018-12-24T23:08:03.129Z,50.77
2018-12-24T23:10:33.417Z,39.93
2018-12-24T23:13:03.691Z,63.13
2018-12-24T23:15:33.910Z,142.43
2018-12-24T23:18:04.162Z,92.80
2018-12-24T23:20:34.550Z,67.60
2018-12-24T23:23:04.785Z,82.40
2018-12-24T23:25:35.052Z,50.10
2018-12-24T23:28:05.159Z,81.23
2018-12-24T23:30:35.414Z,87.43
2018-12-24T23:33:05.724Z,109.73
2018-12-24T23:35:36.004Z,102.07
2018-12-24T23:38:06.185Z,63.70
2018-12-24T23:40:36.453Z,59.33
2018-12-24T23:43:06.774Z,72.33
2018-12-24T23:45:36.931Z,70.90
2018-12-24T23:48:07.227Z,67.10
2018-12-24T23:50:37.513Z,92.10
2018-12-24T23:53:07.754Z,85.20
2018-12-24T23:55:38.014Z,56.80
2018-12-24T23:58:08.272Z,84.87
